sensor_id;sensor_type;location;lat;lon;timestamp;pressure;altitude;pressure_sealevel;temperature;humidity
68301;BME280;55146;47.468;18.806;2022-09-02T00:01:23;100103.72;;;17.50;51.93
68301;BME280;55146;47.468;18.806;2022-09-02T00:03:49;100103.56;;;17.55;51.19
68301;BME280;55146;47.468;18.806;2022-09-02T00:06:16;100094.25;;;17.60;50.57
68301;BME280;55146;47.468;18.806;2022-09-02T00:08:42;100092.75;;;17.54;48.57
68301;BME280;55146;47.468;18.806;2022-09-02T00:11:12;100090.12;;;17.49;50.33
68301;BME280;55146;47.468;18.806;2022-09-02T00:13:38;100092.91;;;17.49;49.13
68301;BME280;55146;47.468;18.806;2022-09-02T00:16:04;100088.31;;;17.44;49.24
68301;BME280;55146;47.468;18.806;2022-09-02T00:18:30;100083.66;;;17.31;49.92
68301;BME280;55146;47.468;18.806;2022-09-02T00:20:56;100079.34;;;17.56;48.47
68301;BME280;55146;47.468;18.806;2022-09-02T00:23:22;100079.19;;;17.52;49.07
68301;BME280;55146;47.468;18.806;2022-09-02T00:25:47;100077.03;;;17.49;48.63
68301;BME280;55146;47.468;18.806;2022-09-02T00:28:14;100071.25;;;17.37;49.20
68301;BME280;55146;47.468;18.806;2022-09-02T00:30:40;100079.78;;;17.40;49.21
68301;BME280;55146;47.468;18.806;2022-09-02T00:33:07;100073.22;;;17.36;48.96
68301;BME280;55146;47.468;18.806;2022-09-02T00:35:33;100079.59;;;17.37;49.22
68301;BME280;55146;47.468;18.806;2022-09-02T00:37:59;100075.38;;;17.39;49.70
68301;BME280;55146;47.468;18.806;2022-09-02T00:40:25;100074.63;;;17.25;49.97
68301;BME280;55146;47.468;18.806;2022-09-02T00:42:51;100070.87;;;17.30;49.35
68301;BME280;55146;47.468;18.806;2022-09-02T00:45:17;100068.72;;;17.18;50.65
68301;BME280;55146;47.468;18.806;2022-09-02T00:47:44;100063.06;;;17.32;47.85
68301;BME280;55146;47.468;18.806;2022-09-02T00:50:12;100073.34;;;17.31;49.02
68301;BME280;55146;47.468;18.806;2022-09-02T00:52:54;100071.91;;;17.34;49.14
68301;BME280;55146;47.468;18.806;2022-09-02T00:55:31;100061.47;;;17.39;47.71
68301;BME280;55146;47.468;18.806;2022-09-02T00:58:09;100058.53;;;17.45;47.71
68301;BME280;55146;47.468;18.806;2022-09-02T01:00:40;100060.09;;;17.28;48.35
68301;BME280;55146;47.468;18.806;2022-09-02T01:03:11;100061.59;;;17.34;48.52
68301;BME280;55146;47.468;18.806;2022-09-02T01:05:40;100063.87;;;17.32;48.27
68301;BME280;55146;47.468;18.806;2022-09-02T01:08:15;100051.56;;;17.25;49.25
68301;BME280;55146;47.468;18.806;2022-09-02T01:10:43;100063.38;;;17.30;48.31
68301;BME280;55146;47.468;18.806;2022-09-02T01:13:12;100056.50;;;17.28;48.87
68301;BME280;55146;47.468;18.806;2022-09-02T01:15:43;100061.69;;;17.21;48.99
68301;BME280;55146;47.468;18.806;2022-09-02T01:18:22;100069.44;;;17.32;47.09
68301;BME280;55146;47.468;18.806;2022-09-02T01:20:50;100067.66;;;17.36;47.86
68301;BME280;55146;47.468;18.806;2022-09-02T01:23:16;100060.81;;;17.43;46.75
68301;BME280;55146;47.468;18.806;2022-09-02T01:25:43;100065.69;;;17.37;48.11
68301;BME280;55146;47.468;18.806;2022-09-02T01:28:11;100064.25;;;17.39;47.65
68301;BME280;55146;47.468;18.806;2022-09-02T01:30:39;100064.56;;;17.38;49.23
68301;BME280;55146;47.468;18.806;2022-09-02T01:33:06;100060.50;;;17.44;48.01
68301;BME280;55146;47.468;18.806;2022-09-02T01:35:31;100050.50;;;17.43;49.50
68301;BME280;55146;47.468;18.806;2022-09-02T01:37:57;100061.16;;;17.50;46.06
68301;BME280;55146;47.468;18.806;2022-09-02T01:40:26;100057.56;;;17.49;46.87
68301;BME280;55146;47.468;18.806;2022-09-02T01:42:55;100056.72;;;17.40;47.55
68301;BME280;55146;47.468;18.806;2022-09-02T01:45:21;100065.69;;;17.37;46.84
68301;BME280;55146;47.468;18.806;2022-09-02T01:47:47;100059.66;;;17.44;47.54
68301;BME280;55146;47.468;18.806;2022-09-02T01:50:12;100049.78;;;17.29;48.63
68301;BME280;55146;47.468;18.806;2022-09-02T01:52:38;100057.03;;;17.38;47.76
68301;BME280;55146;47.468;18.806;2022-09-02T01:55:04;100052.16;;;17.44;46.91
68301;BME280;55146;47.468;18.806;2022-09-02T01:57:29;100058.78;;;17.26;47.79
68301;BME280;55146;47.468;18.806;2022-09-02T01:59:55;100052.75;;;17.32;47.49
68301;BME280;55146;47.468;18.806;2022-09-02T02:02:21;100046.84;;;17.25;47.20
68301;BME280;55146;47.468;18.806;2022-09-02T02:04:47;100039.63;;;17.24;48.86
68301;BME280;55146;47.468;18.806;2022-09-02T02:07:15;100054.41;;;17.33;47.88
68301;BME280;55146;47.468;18.806;2022-09-02T02:09:41;100042.69;;;17.14;47.53
68301;BME280;55146;47.468;18.806;2022-09-02T02:12:07;100039.47;;;17.21;47.72
68301;BME280;55146;47.468;18.806;2022-09-02T02:14:33;100040.75;;;17.23;47.49
68301;BME280;55146;47.468;18.806;2022-09-02T02:16:59;100038.59;;;17.12;49.48
68301;BME280;55146;47.468;18.806;2022-09-02T02:19:25;100040.69;;;17.06;49.08
68301;BME280;55146;47.468;18.806;2022-09-02T02:21:50;100041.56;;;17.15;49.01
68301;BME280;55146;47.468;18.806;2022-09-02T02:24:16;100045.13;;;17.16;47.61
68301;BME280;55146;47.468;18.806;2022-09-02T02:26:41;100040.59;;;17.20;47.99
68301;BME280;55146;47.468;18.806;2022-09-02T02:29:07;100043.09;;;17.30;48.60
68301;BME280;55146;47.468;18.806;2022-09-02T02:31:32;100039.47;;;17.21;48.42
68301;BME280;55146;47.468;18.806;2022-09-02T02:33:58;100037.75;;;17.11;47.91
68301;BME280;55146;47.468;18.806;2022-09-02T02:36:24;100046.66;;;17.22;47.96
68301;BME280;55146;47.468;18.806;2022-09-02T02:38:49;100042.41;;;17.24;47.52
68301;BME280;55146;47.468;18.806;2022-09-02T02:41:14;100037.00;;;17.19;48.84
68301;BME280;55146;47.468;18.806;2022-09-02T02:43:40;100038.56;;;17.03;48.72
68301;BME280;55146;47.468;18.806;2022-09-02T02:46:06;100035.03;;;17.20;49.08
68301;BME280;55146;47.468;18.806;2022-09-02T02:48:33;100037.59;;;17.08;48.21
68301;BME280;55146;47.468;18.806;2022-09-02T02:50:58;100036.13;;;17.10;46.86
68301;BME280;55146;47.468;18.806;2022-09-02T02:53:24;100036.84;;;16.93;49.59
68301;BME280;55146;47.468;18.806;2022-09-02T02:55:50;100040.13;;;16.95;47.70
68301;BME280;55146;47.468;18.806;2022-09-02T02:58:16;100040.44;;;16.94;48.60
68301;BME280;55146;47.468;18.806;2022-09-02T03:00:41;100044.22;;;16.98;49.01
68301;BME280;55146;47.468;18.806;2022-09-02T03:03:08;100028.28;;;16.81;47.48
68301;BME280;55146;47.468;18.806;2022-09-02T03:05:35;100031.44;;;16.88;48.37
68301;BME280;55146;47.468;18.806;2022-09-02T03:08:03;100035.53;;;16.91;48.62
68301;BME280;55146;47.468;18.806;2022-09-02T03:10:30;100032.75;;;16.91;47.63
68301;BME280;55146;47.468;18.806;2022-09-02T03:12:57;100027.00;;;16.87;49.19
68301;BME280;55146;47.468;18.806;2022-09-02T03:15:23;100030.75;;;16.83;47.93
68301;BME280;55146;47.468;18.806;2022-09-02T03:17:48;100028.13;;;16.86;49.74
68301;BME280;55146;47.468;18.806;2022-09-02T03:20:16;100027.13;;;16.82;48.29
68301;BME280;55146;47.468;18.806;2022-09-02T03:22:43;100023.53;;;16.82;50.16
68301;BME280;55146;47.468;18.806;2022-09-02T03:25:10;100025.62;;;16.76;47.67
68301;BME280;55146;47.468;18.806;2022-09-02T03:27:37;100019.63;;;16.83;49.33
68301;BME280;55146;47.468;18.806;2022-09-02T03:30:05;100009.41;;;16.70;50.02
68301;BME280;55146;47.468;18.806;2022-09-02T03:32:31;100021.47;;;16.65;48.29
68301;BME280;55146;47.468;18.806;2022-09-02T03:34:56;100027.03;;;16.65;51.03
68301;BME280;55146;47.468;18.806;2022-09-02T03:37:21;100027.75;;;16.57;49.18
68301;BME280;55146;47.468;18.806;2022-09-02T03:39:47;100027.41;;;16.72;49.85
68301;BME280;55146;47.468;18.806;2022-09-02T03:42:12;100031.62;;;16.70;50.62
68301;BME280;55146;47.468;18.806;2022-09-02T03:44:38;100022.03;;;16.53;51.71
68301;BME280;55146;47.468;18.806;2022-09-02T03:47:05;100020.25;;;16.57;50.02
68301;BME280;55146;47.468;18.806;2022-09-02T03:49:31;100022.03;;;16.53;50.28
68301;BME280;55146;47.468;18.806;2022-09-02T03:51:56;100020.88;;;16.54;49.85
68301;BME280;55146;47.468;18.806;2022-09-02T03:54:22;100020.78;;;16.60;49.68
68301;BME280;55146;47.468;18.806;2022-09-02T03:56:47;100016.09;;;16.69;49.61
68301;BME280;55146;47.468;18.806;2022-09-02T03:59:13;100017.22;;;16.45;51.33
68301;BME280;55146;47.468;18.806;2022-09-02T04:01:38;100029.72;;;16.56;48.93
68301;BME280;55146;47.468;18.806;2022-09-02T04:04:06;100020.16;;;16.49;50.41
68301;BME280;55146;47.468;18.806;2022-09-02T04:06:31;100026.69;;;16.44;49.62
68301;BME280;55146;47.468;18.806;2022-09-02T04:08:57;100023.91;;;16.44;50.81
68301;BME280;55146;47.468;18.806;2022-09-02T04:11:22;100023.03;;;16.57;49.78
68301;BME280;55146;47.468;18.806;2022-09-02T04:13:50;100026.84;;;16.48;48.88
68301;BME280;55146;47.468;18.806;2022-09-02T04:16:19;100027.88;;;16.52;49.06
68301;BME280;55146;47.468;18.806;2022-09-02T04:18:44;100023.22;;;16.61;49.45
68301;BME280;55146;47.468;18.806;2022-09-02T04:21:10;100034.56;;;16.51;50.89
68301;BME280;55146;47.468;18.806;2022-09-02T04:23:36;100027.66;;;16.62;50.81
68301;BME280;55146;47.468;18.806;2022-09-02T04:26:04;100035.03;;;16.67;50.07
68301;BME280;55146;47.468;18.806;2022-09-02T04:28:30;100034.69;;;16.60;50.26
68301;BME280;55146;47.468;18.806;2022-09-02T04:30:55;100036.06;;;16.71;48.86
68301;BME280;55146;47.468;18.806;2022-09-02T04:33:20;100049.31;;;16.74;49.41
68301;BME280;55146;47.468;18.806;2022-09-02T04:35:46;100049.25;;;16.65;50.12
68301;BME280;55146;47.468;18.806;2022-09-02T04:38:14;100037.37;;;16.73;49.05
68301;BME280;55146;47.468;18.806;2022-09-02T04:40:41;100045.59;;;16.78;49.81
68301;BME280;55146;47.468;18.806;2022-09-02T04:43:07;100043.38;;;16.67;49.80
68301;BME280;55146;47.468;18.806;2022-09-02T04:45:33;100051.78;;;16.75;50.50
68301;BME280;55146;47.468;18.806;2022-09-02T04:47:59;100053.94;;;16.78;49.34
68301;BME280;55146;47.468;18.806;2022-09-02T04:50:24;100055.22;;;16.81;50.59
68301;BME280;55146;47.468;18.806;2022-09-02T04:52:49;100054.41;;;16.80;48.90
68301;BME280;55146;47.468;18.806;2022-09-02T04:55:15;100060.03;;;16.89;50.01
68301;BME280;55146;47.468;18.806;2022-09-02T04:57:40;100062.16;;;16.92;48.82
68301;BME280;55146;47.468;18.806;2022-09-02T05:00:07;100058.94;;;16.98;48.10
68301;BME280;55146;47.468;18.806;2022-09-02T05:02:33;100060.03;;;16.89;50.38
68301;BME280;55146;47.468;18.806;2022-09-02T05:04:59;100062.28;;;17.09;48.32
68301;BME280;55146;47.468;18.806;2022-09-02T05:07:24;100065.31;;;16.99;51.10
68301;BME280;55146;47.468;18.806;2022-09-02T05:09:55;100066.22;;;17.08;49.04
68301;BME280;55146;47.468;18.806;2022-09-02T05:12:21;100055.78;;;17.22;46.76
68301;BME280;55146;47.468;18.806;2022-09-02T05:14:46;100059.19;;;17.11;47.82
68301;BME280;55146;47.468;18.806;2022-09-02T05:17:12;100069.22;;;17.20;47.88
68301;BME280;55146;47.468;18.806;2022-09-02T05:19:40;100067.75;;;17.23;48.15
68301;BME280;55146;47.468;18.806;2022-09-02T05:22:05;100067.56;;;17.19;48.54
68301;BME280;55146;47.468;18.806;2022-09-02T05:24:31;100066.91;;;17.22;49.05
68301;BME280;55146;47.468;18.806;2022-09-02T05:26:56;100070.34;;;17.19;48.47
68301;BME280;55146;47.468;18.806;2022-09-02T05:29:21;100073.50;;;17.26;50.84
68301;BME280;55146;47.468;18.806;2022-09-02T05:31:47;100069.38;;;17.24;50.88
68301;BME280;55146;47.468;18.806;2022-09-02T05:34:13;100076.00;;;17.36;51.25
68301;BME280;55146;47.468;18.806;2022-09-02T05:36:39;100078.16;;;17.39;50.44
68301;BME280;55146;47.468;18.806;2022-09-02T05:39:04;100076.31;;;17.35;50.90
68301;BME280;55146;47.468;18.806;2022-09-02T05:41:31;100074.91;;;17.46;52.24
68301;BME280;55146;47.468;18.806;2022-09-02T05:43:58;100073.88;;;17.42;51.37
68301;BME280;55146;47.468;18.806;2022-09-02T05:46:25;100084.87;;;17.47;51.38
68301;BME280;55146;47.468;18.806;2022-09-02T05:48:52;100081.56;;;17.36;54.62
68301;BME280;55146;47.468;18.806;2022-09-02T05:51:50;100090.44;;;17.47;52.56
68301;BME280;55146;47.468;18.806;2022-09-02T05:54:29;100083.88;;;17.43;54.30
68301;BME280;55146;47.468;18.806;2022-09-02T05:56:57;100085.75;;;17.56;55.73
68301;BME280;55146;47.468;18.806;2022-09-02T05:59:24;100082.88;;;17.70;56.61
68301;BME280;55146;47.468;18.806;2022-09-02T06:01:52;100078.16;;;17.70;56.80
68301;BME280;55146;47.468;18.806;2022-09-02T06:04:18;100088.44;;;17.70;53.09
68301;BME280;55146;47.468;18.806;2022-09-02T06:06:43;100093.19;;;17.69;52.64
68301;BME280;55146;47.468;18.806;2022-09-02T06:09:11;100088.97;;;17.81;53.97
68301;BME280;55146;47.468;18.806;2022-09-02T06:11:39;100086.22;;;17.89;57.19
68301;BME280;55146;47.468;18.806;2022-09-02T06:14:09;100089.69;;;17.95;54.13
68301;BME280;55146;47.468;18.806;2022-09-02T06:16:36;100095.22;;;17.86;57.40
68301;BME280;55146;47.468;18.806;2022-09-02T06:19:02;100091.16;;;18.01;56.61
68301;BME280;55146;47.468;18.806;2022-09-02T06:21:30;100094.41;;;18.03;54.11
68301;BME280;55146;47.468;18.806;2022-09-02T06:23:56;100088.37;;;18.09;54.06
68301;BME280;55146;47.468;18.806;2022-09-02T06:26:21;100086.12;;;18.20;56.28
68301;BME280;55146;47.468;18.806;2022-09-02T06:28:47;100089.88;;;18.24;57.96
68301;BME280;55146;47.468;18.806;2022-09-02T06:31:18;100097.06;;;18.16;52.51
68301;BME280;55146;47.468;18.806;2022-09-02T06:33:45;100092.34;;;18.26;51.82
68301;BME280;55146;47.468;18.806;2022-09-02T06:36:14;100091.37;;;18.30;56.77
68301;BME280;55146;47.468;18.806;2022-09-02T06:38:42;100100.34;;;18.10;54.30
68301;BME280;55146;47.468;18.806;2022-09-02T06:41:11;100104.16;;;18.31;51.69
68301;BME280;55146;47.468;18.806;2022-09-02T06:43:37;100107.41;;;18.33;52.50
68301;BME280;55146;47.468;18.806;2022-09-02T06:46:02;100101.03;;;18.41;53.31
68301;BME280;55146;47.468;18.806;2022-09-02T06:48:28;100106.19;;;18.56;54.76
68301;BME280;55146;47.468;18.806;2022-09-02T06:50:53;100104.69;;;18.59;48.86
68301;BME280;55146;47.468;18.806;2022-09-02T06:53:19;100108.47;;;18.63;51.23
68301;BME280;55146;47.468;18.806;2022-09-02T06:55:45;100103.88;;;18.67;53.25
68301;BME280;55146;47.468;18.806;2022-09-02T06:58:12;100103.53;;;18.77;52.65
68301;BME280;55146;47.468;18.806;2022-09-02T07:00:38;100102.56;;;18.73;52.74
68301;BME280;55146;47.468;18.806;2022-09-02T07:03:05;100107.97;;;18.87;53.70
68301;BME280;55146;47.468;18.806;2022-09-02T07:06:09;100112.69;;;18.95;55.00
68301;BME280;55146;47.468;18.806;2022-09-02T07:08:36;100103.69;;;18.98;52.29
68301;BME280;55146;47.468;18.806;2022-09-02T07:11:04;100104.84;;;19.06;51.47
68301;BME280;55146;47.468;18.806;2022-09-02T07:13:30;100107.47;;;18.93;50.30
68301;BME280;55146;47.468;18.806;2022-09-02T07:15:55;100102.53;;;19.08;51.79
68301;BME280;55146;47.468;18.806;2022-09-02T07:18:21;100101.56;;;19.04;48.99
68301;BME280;55146;47.468;18.806;2022-09-02T07:20:46;100102.88;;;19.06;53.59
68301;BME280;55146;47.468;18.806;2022-09-02T07:23:13;100102.00;;;19.14;51.65
68301;BME280;55146;47.468;18.806;2022-09-02T07:25:39;100104.31;;;19.21;49.64
68301;BME280;55146;47.468;18.806;2022-09-02T07:28:06;100100.12;;;19.53;49.81
68301;BME280;55146;47.468;18.806;2022-09-02T07:30:32;100097.94;;;20.05;50.17
68301;BME280;55146;47.468;18.806;2022-09-02T07:32:58;100092.69;;;20.33;49.50
68301;BME280;55146;47.468;18.806;2022-09-02T07:35:24;100097.78;;;20.51;47.62
68301;BME280;55146;47.468;18.806;2022-09-02T07:37:49;100097.75;;;20.60;47.52
68301;BME280;55146;47.468;18.806;2022-09-02T07:40:15;100092.53;;;20.91;45.75
68301;BME280;55146;47.468;18.806;2022-09-02T07:42:41;100089.47;;;21.17;48.16
68301;BME280;55146;47.468;18.806;2022-09-02T07:45:07;100089.06;;;21.27;46.86
68301;BME280;55146;47.468;18.806;2022-09-02T07:47:33;100085.84;;;21.62;47.08
68301;BME280;55146;47.468;18.806;2022-09-02T07:49:59;100084.34;;;21.76;45.01
68301;BME280;55146;47.468;18.806;2022-09-02T07:52:24;100086.91;;;21.94;44.77
68301;BME280;55146;47.468;18.806;2022-09-02T07:54:49;100086.56;;;21.83;45.26
68301;BME280;55146;47.468;18.806;2022-09-02T07:57:15;100086.44;;;21.92;44.50
68301;BME280;55146;47.468;18.806;2022-09-02T07:59:40;100089.75;;;22.06;45.26
68301;BME280;55146;47.468;18.806;2022-09-02T08:02:07;100088.88;;;22.30;44.39
68301;BME280;55146;47.468;18.806;2022-09-02T08:04:33;100091.81;;;22.33;45.40
68301;BME280;55146;47.468;18.806;2022-09-02T08:06:59;100087.59;;;22.39;43.79
68301;BME280;55146;47.468;18.806;2022-09-02T08:09:24;100093.97;;;22.76;44.96
68301;BME280;55146;47.468;18.806;2022-09-02T08:11:50;100090.59;;;22.98;43.16
68301;BME280;55146;47.468;18.806;2022-09-02T08:14:19;100092.78;;;23.05;43.65
68301;BME280;55146;47.468;18.806;2022-09-02T08:16:45;100093.28;;;23.23;44.14
68301;BME280;55146;47.468;18.806;2022-09-02T08:19:13;100088.03;;;23.37;43.06
68301;BME280;55146;47.468;18.806;2022-09-02T08:21:39;100085.31;;;23.25;41.39
68301;BME280;55146;47.468;18.806;2022-09-02T08:24:04;100087.00;;;23.14;43.54
68301;BME280;55146;47.468;18.806;2022-09-02T08:26:30;100091.75;;;23.25;42.85
68301;BME280;55146;47.468;18.806;2022-09-02T08:28:56;100089.56;;;23.34;42.78
68301;BME280;55146;47.468;18.806;2022-09-02T08:31:21;100087.94;;;23.33;41.14
68301;BME280;55146;47.468;18.806;2022-09-02T08:33:47;100088.41;;;23.35;42.40
68301;BME280;55146;47.468;18.806;2022-09-02T08:36:12;100081.16;;;23.34;42.04
68301;BME280;55146;47.468;18.806;2022-09-02T08:38:42;100086.28;;;23.17;44.27
68301;BME280;55146;47.468;18.806;2022-09-02T08:41:47;100082.69;;;22.88;41.54
68301;BME280;55146;47.468;18.806;2022-09-02T08:44:20;100078.66;;;23.02;41.74
68301;BME280;55146;47.468;18.806;2022-09-02T08:46:48;100086.00;;;23.22;44.30
68301;BME280;55146;47.468;18.806;2022-09-02T08:49:50;100082.91;;;23.39;40.50
68301;BME280;55146;47.468;18.806;2022-09-02T08:52:32;100076.38;;;23.98;41.83
68301;BME280;55146;47.468;18.806;2022-09-02T08:55:00;100088.78;;;24.28;40.31
68301;BME280;55146;47.468;18.806;2022-09-02T08:57:26;100082.09;;;24.52;41.28
68301;BME280;55146;47.468;18.806;2022-09-02T08:59:56;100072.62;;;24.79;39.60
68301;BME280;55146;47.468;18.806;2022-09-02T09:02:28;100069.81;;;25.18;40.32
68301;BME280;55146;47.468;18.806;2022-09-02T09:05:18;100072.53;;;25.33;39.76
68301;BME280;55146;47.468;18.806;2022-09-02T09:18:19;100061.37;;;26.35;35.36
68301;BME280;55146;47.468;18.806;2022-09-02T09:20:48;100056.41;;;26.02;36.90
68301;BME280;55146;47.468;18.806;2022-09-02T09:23:27;100058.91;;;25.58;35.89
68301;BME280;55146;47.468;18.806;2022-09-02T09:25:58;100054.47;;;25.57;39.02
68301;BME280;55146;47.468;18.806;2022-09-02T09:28:28;100057.53;;;25.49;37.05
68301;BME280;55146;47.468;18.806;2022-09-02T09:30:53;100053.66;;;25.37;37.25
68301;BME280;55146;47.468;18.806;2022-09-02T09:33:20;100058.25;;;25.46;36.88
68301;BME280;55146;47.468;18.806;2022-09-02T09:35:51;100059.06;;;25.23;37.05
68301;BME280;55146;47.468;18.806;2022-09-02T09:38:28;100051.22;;;25.13;37.41
68301;BME280;55146;47.468;18.806;2022-09-02T09:43:36;100044.94;;;25.01;40.05
68301;BME280;55146;47.468;18.806;2022-09-02T09:46:19;100052.38;;;25.12;39.74
68301;BME280;55146;47.468;18.806;2022-09-02T09:48:48;100042.72;;;25.10;37.68
68301;BME280;55146;47.468;18.806;2022-09-02T09:51:14;100040.56;;;24.84;36.29
68301;BME280;55146;47.468;18.806;2022-09-02T09:53:40;100037.91;;;24.91;35.61
68301;BME280;55146;47.468;18.806;2022-09-02T09:56:22;100032.09;;;24.84;36.19
68301;BME280;55146;47.468;18.806;2022-09-02T09:58:49;100032.06;;;24.80;39.17
68301;BME280;55146;47.468;18.806;2022-09-02T10:01:25;100030.28;;;24.72;37.86
68301;BME280;55146;47.468;18.806;2022-09-02T10:04:04;100027.97;;;24.78;38.91
68301;BME280;55146;47.468;18.806;2022-09-02T10:08:59;100031.16;;;24.57;40.64
68301;BME280;55146;47.468;18.806;2022-09-02T10:11:28;100039.97;;;24.36;38.63
68301;BME280;55146;47.468;18.806;2022-09-02T10:14:03;100031.81;;;24.15;44.73
68301;BME280;55146;47.468;18.806;2022-09-02T10:27:09;100038.50;;;23.92;42.59
68301;BME280;55146;47.468;18.806;2022-09-02T10:29:51;100037.69;;;23.91;40.04
68301;BME280;55146;47.468;18.806;2022-09-02T10:37:25;100038.16;;;23.77;41.29
68301;BME280;55146;47.468;18.806;2022-09-02T10:40:16;100045.56;;;23.86;44.07
68301;BME280;55146;47.468;18.806;2022-09-02T10:42:53;100036.97;;;23.78;41.36
68301;BME280;55146;47.468;18.806;2022-09-02T10:45:28;100040.78;;;23.70;43.50
68301;BME280;55146;47.468;18.806;2022-09-02T10:51:14;100033.41;;;23.97;42.75
68301;BME280;55146;47.468;18.806;2022-09-02T10:53:55;100031.13;;;24.03;40.61
68301;BME280;55146;47.468;18.806;2022-09-02T10:56:34;100041.72;;;24.09;41.65
68301;BME280;55146;47.468;18.806;2022-09-02T10:59:11;100032.84;;;24.42;40.92
68301;BME280;55146;47.468;18.806;2022-09-02T11:01:59;100034.41;;;24.40;40.12
68301;BME280;55146;47.468;18.806;2022-09-02T11:07:03;100040.44;;;24.23;42.46
68301;BME280;55146;47.468;18.806;2022-09-02T11:09:39;100029.22;;;24.42;43.56
68301;BME280;55146;47.468;18.806;2022-09-02T11:12:12;100023.31;;;24.47;42.64
68301;BME280;55146;47.468;18.806;2022-09-02T11:17:43;100023.00;;;25.55;39.06
68301;BME280;55146;47.468;18.806;2022-09-02T11:20:34;100004.94;;;26.09;38.47
68301;BME280;55146;47.468;18.806;2022-09-02T11:23:05;100009.91;;;26.45;39.26
68301;BME280;55146;47.468;18.806;2022-09-02T11:25:41;100010.16;;;26.67;37.67
68301;BME280;55146;47.468;18.806;2022-09-02T11:30:50;99992.97;;;27.16;36.98
68301;BME280;55146;47.468;18.806;2022-09-02T11:33:21;100000.13;;;27.03;31.85
68301;BME280;55146;47.468;18.806;2022-09-02T11:35:47;99997.12;;;27.22;34.29
68301;BME280;55146;47.468;18.806;2022-09-02T11:47:00;99987.66;;;26.10;35.57
68301;BME280;55146;47.468;18.806;2022-09-02T11:55:07;99983.69;;;26.15;35.17
68301;BME280;55146;47.468;18.806;2022-09-02T11:57:34;99983.50;;;25.52;37.73
68301;BME280;55146;47.468;18.806;2022-09-02T12:02:47;99979.44;;;25.04;35.98
68301;BME280;55146;47.468;18.806;2022-09-02T12:07:59;99982.31;;;24.88;37.45
68301;BME280;55146;47.468;18.806;2022-09-02T12:18:36;99978.19;;;24.82;38.13
68301;BME280;55146;47.468;18.806;2022-09-02T12:21:07;99977.63;;;24.53;42.27
68301;BME280;55146;47.468;18.806;2022-09-02T12:26:13;99971.19;;;24.53;38.59
68301;BME280;55146;47.468;18.806;2022-09-02T12:28:40;99978.75;;;24.30;40.35
68301;BME280;55146;47.468;18.806;2022-09-02T12:31:12;99976.00;;;24.33;40.83
68301;BME280;55146;47.468;18.806;2022-09-02T12:33:44;99976.78;;;24.14;40.74
68301;BME280;55146;47.468;18.806;2022-09-02T12:50:02;99970.78;;;24.32;42.61
68301;BME280;55146;47.468;18.806;2022-09-02T12:57:41;99956.56;;;24.25;40.74
68301;BME280;55146;47.468;18.806;2022-09-02T13:00:09;99963.09;;;24.13;42.79
68301;BME280;55146;47.468;18.806;2022-09-02T13:03:02;99957.91;;;24.15;40.95
68301;BME280;55146;47.468;18.806;2022-09-02T13:08:49;99956.37;;;24.17;40.55
68301;BME280;55146;47.468;18.806;2022-09-02T13:14:28;99954.66;;;24.13;42.26
68301;BME280;55146;47.468;18.806;2022-09-02T13:25:55;99951.16;;;24.35;40.98
68301;BME280;55146;47.468;18.806;2022-09-02T13:28:47;99945.22;;;24.40;41.33
68301;BME280;55146;47.468;18.806;2022-09-02T13:31:20;99951.59;;;24.37;40.27
68301;BME280;55146;47.468;18.806;2022-09-02T13:33:55;99950.63;;;24.49;41.30
68301;BME280;55146;47.468;18.806;2022-09-02T13:36:26;99942.84;;;24.42;39.15
68301;BME280;55146;47.468;18.806;2022-09-02T13:38:52;99940.19;;;24.49;39.15
68301;BME280;55146;47.468;18.806;2022-09-02T13:41:31;99943.31;;;24.25;39.32
68301;BME280;55146;47.468;18.806;2022-09-02T13:44:11;99935.88;;;24.17;39.28
68301;BME280;55146;47.468;18.806;2022-09-02T13:46:44;99934.22;;;24.32;42.80
68301;BME280;55146;47.468;18.806;2022-09-02T13:49:18;99933.72;;;24.10;39.92
68301;BME280;55146;47.468;18.806;2022-09-02T13:51:44;99936.75;;;24.02;39.24
68301;BME280;55146;47.468;18.806;2022-09-02T13:54:11;99936.16;;;23.93;38.71
68301;BME280;55146;47.468;18.806;2022-09-02T13:56:37;99931.06;;;23.98;41.76
68301;BME280;55146;47.468;18.806;2022-09-02T13:59:02;99939.16;;;23.84;40.18
68301;BME280;55146;47.468;18.806;2022-09-02T14:01:35;99921.75;;;23.94;36.51
68301;BME280;55146;47.468;18.806;2022-09-02T14:04:12;99929.72;;;23.57;37.39
68301;BME280;55146;47.468;18.806;2022-09-02T14:06:41;99929.88;;;23.64;39.31
68301;BME280;55146;47.468;18.806;2022-09-02T14:09:21;99926.63;;;23.62;37.23
68301;BME280;55146;47.468;18.806;2022-09-02T14:11:49;99935.22;;;23.69;41.25
68301;BME280;55146;47.468;18.806;2022-09-02T14:14:17;99929.31;;;23.74;39.11
68301;BME280;55146;47.468;18.806;2022-09-02T14:16:44;99927.50;;;23.82;39.43
68301;BME280;55146;47.468;18.806;2022-09-02T14:21:50;99928.78;;;23.69;40.43
68301;BME280;55146;47.468;18.806;2022-09-02T14:24:22;99930.81;;;23.88;42.43
68301;BME280;55146;47.468;18.806;2022-09-02T14:26:50;99932.28;;;23.82;40.79
68301;BME280;55146;47.468;18.806;2022-09-02T14:29:18;99926.53;;;23.94;39.47
68301;BME280;55146;47.468;18.806;2022-09-02T14:31:45;99928.97;;;23.60;36.09
68301;BME280;55146;47.468;18.806;2022-09-02T14:34:30;99933.75;;;23.75;41.22
68301;BME280;55146;47.468;18.806;2022-09-02T14:36:56;99927.22;;;23.71;38.22
68301;BME280;55146;47.468;18.806;2022-09-02T14:39:21;99935.47;;;23.80;40.57